sensor_id;sensor_type;location;lat;lon;timestamp;temperature;humidity
48264;DHT22;34086;51.076;13.722;2023-06-10T00:00:26;20.10;99.90
48264;DHT22;34086;51.076;13.722;2023-06-10T00:01:27;20.10;99.90
48264;DHT22;34086;51.076;13.722;2023-06-10T00:02:28;20.10;99.90
48264;DHT22;34086;51.076;13.722;2023-06-10T00:03:29;20.10;99.90
48264;DHT22;34086;51.076;13.722;2023-06-10T00:04:30;20.10;99.90
48264;DHT22;34086;51.076;13.722;2023-06-10T00:05:30;20.00;99.90
48264;DHT22;34086;51.076;13.722;2023-06-10T00:06:31;20.10;99.90
48264;DHT22;34086;51.076;13.722;2023-06-10T00:07:35;20.10;99.90
48264;DHT22;34086;51.076;13.722;2023-06-10T00:08:38;20.00;99.90
48264;DHT22;34086;51.076;13.722;2023-06-10T00:09:40;20.10;99.90
48264;DHT22;34086;51.076;13.722;2023-06-10T00:10:41;20.00;99.90
48264;DHT22;34086;51.076;13.722;2023-06-10T00:11:42;20.00;99.90
48264;DHT22;34086;51.076;13.722;2023-06-10T00:12:42;20.00;99.90
48264;DHT22;34086;51.076;13.722;2023-06-10T00:13:44;20.00;99.90
48264;DHT22;34086;51.076;13.722;2023-06-10T00:14:44;20.00;99.90
48264;DHT22;34086;51.076;13.722;2023-06-10T00:15:45;20.00;99.90
48264;DHT22;34086;51.076;13.722;2023-06-10T00:16:45;20.00;99.90
48264;DHT22;34086;51.076;13.722;2023-06-10T00:17:46;20.00;99.90
48264;DHT22;34086;51.076;13.722;2023-06-10T00:18:47;20.00;99.90
48264;DHT22;34086;51.076;13.722;2023-06-10T00:19:49;19.90;99.90
48264;DHT22;34086;51.076;13.722;2023-06-10T00:20:51;19.90;99.90
48264;DHT22;34086;51.076;13.722;2023-06-10T00:21:55;19.90;99.90
48264;DHT22;34086;51.076;13.722;2023-06-10T00:22:58;19.90;99.90
48264;DHT22;34086;51.076;13.722;2023-06-10T00:23:59;19.90;99.90
48264;DHT22;34086;51.076;13.722;2023-06-10T00:25:05;19.90;99.90
48264;DHT22;34086;51.076;13.722;2023-06-10T00:26:06;19.90;99.90
48264;DHT22;34086;51.076;13.722;2023-06-10T00:27:07;19.90;99.90
48264;DHT22;34086;51.076;13.722;2023-06-10T00:28:07;19.90;99.90
48264;DHT22;34086;51.076;13.722;2023-06-10T00:29:08;19.90;99.90
48264;DHT22;34086;51.076;13.722;2023-06-10T00:30:09;19.90;99.90
48264;DHT22;34086;51.076;13.722;2023-06-10T00:31:10;19.90;99.90
48264;DHT22;34086;51.076;13.722;2023-06-10T00:32:13;19.80;99.90
48264;DHT22;34086;51.076;13.722;2023-06-10T00:33:13;19.80;99.90
48264;DHT22;34086;51.076;13.722;2023-06-10T00:34:14;19.80;99.90
48264;DHT22;34086;51.076;13.722;2023-06-10T00:35:14;19.80;99.90
48264;DHT22;34086;51.076;13.722;2023-06-10T00:36:15;19.80;99.90
48264;DHT22;34086;51.076;13.722;2023-06-10T00:37:15;19.80;99.90
48264;DHT22;34086;51.076;13.722;2023-06-10T00:38:17;19.70;99.90
48264;DHT22;34086;51.076;13.722;2023-06-10T00:39:17;19.80;99.90
48264;DHT22;34086;51.076;13.722;2023-06-10T00:40:18;19.80;99.90
48264;DHT22;34086;51.076;13.722;2023-06-10T00:41:18;19.80;99.90
48264;DHT22;34086;51.076;13.722;2023-06-10T00:42:19;19.70;99.90
48264;DHT22;34086;51.076;13.722;2023-06-10T00:43:20;19.80;99.90
48264;DHT22;34086;51.076;13.722;2023-06-10T00:44:21;19.70;99.90
48264;DHT22;34086;51.076;13.722;2023-06-10T00:45:21;19.80;99.90
48264;DHT22;34086;51.076;13.722;2023-06-10T00:46:23;19.80;99.90
48264;DHT22;34086;51.076;13.722;2023-06-10T00:47:26;19.80;99.90
48264;DHT22;34086;51.076;13.722;2023-06-10T00:48:27;19.80;99.90
48264;DHT22;34086;51.076;13.722;2023-06-10T00:49:28;19.80;99.90
48264;DHT22;34086;51.076;13.722;2023-06-10T00:50:29;19.80;99.90
48264;DHT22;34086;51.076;13.722;2023-06-10T00:51:31;19.70;99.90
48264;DHT22;34086;51.076;13.722;2023-06-10T00:52:32;19.70;99.90
48264;DHT22;34086;51.076;13.722;2023-06-10T00:53:34;19.70;99.90
48264;DHT22;34086;51.076;13.722;2023-06-10T00:54:35;19.70;99.90
48264;DHT22;34086;51.076;13.722;2023-06-10T00:55:37;19.70;99.90
48264;DHT22;34086;51.076;13.722;2023-06-10T00:56:38;19.70;99.90
48264;DHT22;34086;51.076;13.722;2023-06-10T00:57:38;19.70;99.90
48264;DHT22;34086;51.076;13.722;2023-06-10T00:58:39;19.70;99.90
48264;DHT22;34086;51.076;13.722;2023-06-10T00:59:41;19.60;99.90
48264;DHT22;34086;51.076;13.722;2023-06-10T01:00:43;19.60;99.90
48264;DHT22;34086;51.076;13.722;2023-06-10T01:01:46;19.60;99.90
48264;DHT22;34086;51.076;13.722;2023-06-10T01:02:47;19.50;99.90
48264;DHT22;34086;51.076;13.722;2023-06-10T01:03:48;19.50;99.90
48264;DHT22;34086;51.076;13.722;2023-06-10T01:04:48;19.50;99.90
48264;DHT22;34086;51.076;13.722;2023-06-10T01:05:55;19.50;99.90
48264;DHT22;34086;51.076;13.722;2023-06-10T01:10:17;19.30;99.90
48264;DHT22;34086;51.076;13.722;2023-06-10T01:11:28;19.30;99.90
48264;DHT22;34086;51.076;13.722;2023-06-10T01:13:00;19.20;99.90
48264;DHT22;34086;51.076;13.722;2023-06-10T01:14:04;19.20;99.90
48264;DHT22;34086;51.076;13.722;2023-06-10T01:15:06;19.20;99.90
48264;DHT22;34086;51.076;13.722;2023-06-10T01:16:09;19.20;99.90
48264;DHT22;34086;51.076;13.722;2023-06-10T01:17:10;19.10;99.90
48264;DHT22;34086;51.076;13.722;2023-06-10T01:18:11;19.10;99.90
48264;DHT22;34086;51.076;13.722;2023-06-10T01:19:17;19.10;99.90
48264;DHT22;34086;51.076;13.722;2023-06-10T01:20:18;19.10;99.90
48264;DHT22;34086;51.076;13.722;2023-06-10T01:21:22;19.00;99.90
48264;DHT22;34086;51.076;13.722;2023-06-10T01:22:27;19.00;99.90
48264;DHT22;34086;51.076;13.722;2023-06-10T01:23:28;19.00;99.90
48264;DHT22;34086;51.076;13.722;2023-06-10T01:24:29;19.00;99.90
48264;DHT22;34086;51.076;13.722;2023-06-10T01:25:38;19.00;99.90
48264;DHT22;34086;51.076;13.722;2023-06-10T01:26:39;19.00;99.90
48264;DHT22;34086;51.076;13.722;2023-06-10T01:27:42;18.90;99.90
48264;DHT22;34086;51.076;13.722;2023-06-10T01:28:57;18.90;99.90
48264;DHT22;34086;51.076;13.722;2023-06-10T01:30:10;18.90;99.90
48264;DHT22;34086;51.076;13.722;2023-06-10T01:31:36;18.80;99.90
48264;DHT22;34086;51.076;13.722;2023-06-10T01:32:43;18.80;99.90
48264;DHT22;34086;51.076;13.722;2023-06-10T01:33:52;18.80;99.90
48264;DHT22;34086;51.076;13.722;2023-06-10T01:34:54;18.70;99.90
48264;DHT22;34086;51.076;13.722;2023-06-10T01:35:57;18.70;99.90
48264;DHT22;34086;51.076;13.722;2023-06-10T01:36:59;18.70;99.90
48264;DHT22;34086;51.076;13.722;2023-06-10T01:38:01;18.70;99.90
48264;DHT22;34086;51.076;13.722;2023-06-10T01:39:04;18.70;99.90
48264;DHT22;34086;51.076;13.722;2023-06-10T01:40:06;18.70;99.90
48264;DHT22;34086;51.076;13.722;2023-06-10T01:41:10;18.60;99.90
48264;DHT22;34086;51.076;13.722;2023-06-10T01:42:12;18.60;99.90
48264;DHT22;34086;51.076;13.722;2023-06-10T01:43:13;18.60;99.90
48264;DHT22;34086;51.076;13.722;2023-06-10T01:44:21;18.50;99.90
48264;DHT22;34086;51.076;13.722;2023-06-10T01:45:21;18.50;99.90
48264;DHT22;34086;51.076;13.722;2023-06-10T01:46:22;18.50;99.90
48264;DHT22;34086;51.076;13.722;2023-06-10T01:47:23;18.50;99.90
48264;DHT22;34086;51.076;13.722;2023-06-10T01:48:23;18.50;99.90
48264;DHT22;34086;51.076;13.722;2023-06-10T01:49:24;18.40;99.90
48264;DHT22;34086;51.076;13.722;2023-06-10T01:50:26;18.40;99.90
48264;DHT22;34086;51.076;13.722;2023-06-10T01:51:27;18.40;99.90
48264;DHT22;34086;51.076;13.722;2023-06-10T01:52:27;18.40;99.90
48264;DHT22;34086;51.076;13.722;2023-06-10T01:53:28;18.40;99.90
48264;DHT22;34086;51.076;13.722;2023-06-10T01:54:29;18.30;99.90
48264;DHT22;34086;51.076;13.722;2023-06-10T01:55:29;18.30;99.90
48264;DHT22;34086;51.076;13.722;2023-06-10T01:56:30;18.30;99.90
48264;DHT22;34086;51.076;13.722;2023-06-10T01:57:30;18.30;99.90
48264;DHT22;34086;51.076;13.722;2023-06-10T01:58:31;18.30;99.90
48264;DHT22;34086;51.076;13.722;2023-06-10T01:59:32;18.30;99.90
48264;DHT22;34086;51.076;13.722;2023-06-10T02:00:32;18.30;99.90
48264;DHT22;34086;51.076;13.722;2023-06-10T02:01:33;18.20;99.90
48264;DHT22;34086;51.076;13.722;2023-06-10T02:02:34;18.30;99.90
48264;DHT22;34086;51.076;13.722;2023-06-10T02:03:34;18.20;99.90
48264;DHT22;34086;51.076;13.722;2023-06-10T02:04:36;18.20;99.90
48264;DHT22;34086;51.076;13.722;2023-06-10T02:05:37;18.20;99.90
48264;DHT22;34086;51.076;13.722;2023-06-10T02:06:38;18.20;99.90
48264;DHT22;34086;51.076;13.722;2023-06-10T02:07:38;18.20;99.90
48264;DHT22;34086;51.076;13.722;2023-06-10T02:08:39;18.10;99.90
48264;DHT22;34086;51.076;13.722;2023-06-10T02:09:39;18.10;99.90
48264;DHT22;34086;51.076;13.722;2023-06-10T02:10:40;18.10;99.90
48264;DHT22;34086;51.076;13.722;2023-06-10T02:11:41;18.10;99.90
48264;DHT22;34086;51.076;13.722;2023-06-10T02:12:41;18.10;99.90
48264;DHT22;34086;51.076;13.722;2023-06-10T02:13:42;18.10;99.90
48264;DHT22;34086;51.076;13.722;2023-06-10T02:14:43;18.00;99.90
48264;DHT22;34086;51.076;13.722;2023-06-10T02:15:43;18.00;99.90
48264;DHT22;34086;51.076;13.722;2023-06-10T02:16:44;18.00;99.90
48264;DHT22;34086;51.076;13.722;2023-06-10T02:17:47;18.00;99.90
48264;DHT22;34086;51.076;13.722;2023-06-10T02:18:49;17.90;99.90
48264;DHT22;34086;51.076;13.722;2023-06-10T02:19:49;17.90;99.90
48264;DHT22;34086;51.076;13.722;2023-06-10T02:20:53;17.90;99.90
48264;DHT22;34086;51.076;13.722;2023-06-10T02:21:53;17.90;99.90
48264;DHT22;34086;51.076;13.722;2023-06-10T02:22:54;17.90;99.90
48264;DHT22;34086;51.076;13.722;2023-06-10T02:23:55;17.90;99.90
48264;DHT22;34086;51.076;13.722;2023-06-10T02:24:55;17.90;99.90
48264;DHT22;34086;51.076;13.722;2023-06-10T02:25:56;17.90;99.90
48264;DHT22;34086;51.076;13.722;2023-06-10T02:26:58;17.90;99.90
48264;DHT22;34086;51.076;13.722;2023-06-10T02:28:00;17.80;99.90
48264;DHT22;34086;51.076;13.722;2023-06-10T02:29:03;17.80;99.90
48264;DHT22;34086;51.076;13.722;2023-06-10T02:30:04;17.80;99.90
48264;DHT22;34086;51.076;13.722;2023-06-10T02:31:09;17.80;99.90
48264;DHT22;34086;51.076;13.722;2023-06-10T02:32:09;17.70;99.90
48264;DHT22;34086;51.076;13.722;2023-06-10T02:33:10;17.70;99.90
48264;DHT22;34086;51.076;13.722;2023-06-10T02:34:12;17.70;99.90
48264;DHT22;34086;51.076;13.722;2023-06-10T02:35:12;17.70;99.90
48264;DHT22;34086;51.076;13.722;2023-06-10T02:36:13;17.70;99.90
48264;DHT22;34086;51.076;13.722;2023-06-10T02:37:16;17.70;99.90
48264;DHT22;34086;51.076;13.722;2023-06-10T02:38:16;17.70;99.90
48264;DHT22;34086;51.076;13.722;2023-06-10T02:39:17;17.70;99.90
48264;DHT22;34086;51.076;13.722;2023-06-10T02:40:20;17.70;99.90
48264;DHT22;34086;51.076;13.722;2023-06-10T02:41:21;17.70;99.90
48264;DHT22;34086;51.076;13.722;2023-06-10T02:42:23;17.60;99.90
48264;DHT22;34086;51.076;13.722;2023-06-10T02:43:24;17.70;99.90
48264;DHT22;34086;51.076;13.722;2023-06-10T02:44:25;17.60;99.90
48264;DHT22;34086;51.076;13.722;2023-06-10T02:45:26;17.60;99.90
48264;DHT22;34086;51.076;13.722;2023-06-10T02:46:28;17.60;99.90
48264;DHT22;34086;51.076;13.722;2023-06-10T02:47:29;17.60;99.90
48264;DHT22;34086;51.076;13.722;2023-06-10T02:48:30;17.60;99.90
48264;DHT22;34086;51.076;13.722;2023-06-10T02:49:31;17.60;99.90
48264;DHT22;34086;51.076;13.722;2023-06-10T02:50:33;17.60;99.90
48264;DHT22;34086;51.076;13.722;2023-06-10T02:51:42;17.60;99.90
48264;DHT22;34086;51.076;13.722;2023-06-10T02:52:43;17.50;99.90
48264;DHT22;34086;51.076;13.722;2023-06-10T02:53:44;17.50;99.90
48264;DHT22;34086;51.076;13.722;2023-06-10T02:54:47;17.50;99.90
48264;DHT22;34086;51.076;13.722;2023-06-10T02:55:48;17.50;99.90
48264;DHT22;34086;51.076;13.722;2023-06-10T02:56:52;17.50;99.90
48264;DHT22;34086;51.076;13.722;2023-06-10T02:57:56;17.50;99.90
48264;DHT22;34086;51.076;13.722;2023-06-10T02:58:59;17.50;99.90
48264;DHT22;34086;51.076;13.722;2023-06-10T03:00:00;17.50;99.90
48264;DHT22;34086;51.076;13.722;2023-06-10T03:01:02;17.50;99.90
48264;DHT22;34086;51.076;13.722;2023-06-10T03:02:10;17.50;99.90
48264;DHT22;34086;51.076;13.722;2023-06-10T03:03:17;17.50;99.90
48264;DHT22;34086;51.076;13.722;2023-06-10T03:04:28;17.50;99.90
48264;DHT22;34086;51.076;13.722;2023-06-10T03:05:35;17.50;99.90
48264;DHT22;34086;51.076;13.722;2023-06-10T03:06:38;17.50;99.90
48264;DHT22;34086;51.076;13.722;2023-06-10T03:07:48;17.40;99.90
48264;DHT22;34086;51.076;13.722;2023-06-10T03:08:49;17.40;99.90
48264;DHT22;34086;51.076;13.722;2023-06-10T03:09:52;17.50;99.90
48264;DHT22;34086;51.076;13.722;2023-06-10T03:10:53;17.50;99.90
48264;DHT22;34086;51.076;13.722;2023-06-10T03:11:54;17.50;99.90
48264;DHT22;34086;51.076;13.722;2023-06-10T03:12:55;17.40;99.90
48264;DHT22;34086;51.076;13.722;2023-06-10T03:13:58;17.40;99.90
48264;DHT22;34086;51.076;13.722;2023-06-10T03:15:00;17.50;99.90
48264;DHT22;34086;51.076;13.722;2023-06-10T03:16:04;17.50;99.90
48264;DHT22;34086;51.076;13.722;2023-06-10T03:17:06;17.50;99.90
48264;DHT22;34086;51.076;13.722;2023-06-10T03:18:08;17.50;99.90
48264;DHT22;34086;51.076;13.722;2023-06-10T03:19:09;17.50;99.90
48264;DHT22;34086;51.076;13.722;2023-06-10T03:20:12;17.50;99.90
48264;DHT22;34086;51.076;13.722;2023-06-10T03:21:16;17.50;99.90
48264;DHT22;34086;51.076;13.722;2023-06-10T03:22:17;17.50;99.90
48264;DHT22;34086;51.076;13.722;2023-06-10T03:23:27;17.50;99.90
48264;DHT22;34086;51.076;13.722;2023-06-10T03:24:28;17.50;99.90
48264;DHT22;34086;51.076;13.722;2023-06-10T03:25:29;17.50;99.90
48264;DHT22;34086;51.076;13.722;2023-06-10T03:26:31;17.50;99.90
48264;DHT22;34086;51.076;13.722;2023-06-10T03:27:32;17.50;99.90
48264;DHT22;34086;51.076;13.722;2023-06-10T03:28:36;17.50;99.90
48264;DHT22;34086;51.076;13.722;2023-06-10T03:29:37;17.50;99.90
48264;DHT22;34086;51.076;13.722;2023-06-10T03:30:39;17.50;99.90
48264;DHT22;34086;51.076;13.722;2023-06-10T03:31:40;17.50;99.90
48264;DHT22;34086;51.076;13.722;2023-06-10T03:32:42;17.50;99.90
48264;DHT22;34086;51.076;13.722;2023-06-10T03:33:45;17.50;99.90
48264;DHT22;34086;51.076;13.722;2023-06-10T03:34:46;17.50;99.90
48264;DHT22;34086;51.076;13.722;2023-06-10T03:35:48;17.50;99.90
48264;DHT22;34086;51.076;13.722;2023-06-10T03:36:48;17.50;99.90
48264;DHT22;34086;51.076;13.722;2023-06-10T03:37:49;17.50;99.90
48264;DHT22;34086;51.076;13.722;2023-06-10T03:38:49;17.60;99.90
48264;DHT22;34086;51.076;13.722;2023-06-10T03:39:52;17.60;99.90
48264;DHT22;34086;51.076;13.722;2023-06-10T03:40:53;17.60;99.90
48264;DHT22;34086;51.076;13.722;2023-06-10T03:41:53;17.60;99.90
48264;DHT22;34086;51.076;13.722;2023-06-10T03:42:54;17.60;99.90
48264;DHT22;34086;51.076;13.722;2023-06-10T03:43:55;17.60;99.90
48264;DHT22;34086;51.076;13.722;2023-06-10T03:44:56;17.60;99.90
48264;DHT22;34086;51.076;13.722;2023-06-10T03:45:57;17.70;99.90
48264;DHT22;34086;51.076;13.722;2023-06-10T03:46:58;17.70;99.90
48264;DHT22;34086;51.076;13.722;2023-06-10T03:48:01;17.70;99.90
48264;DHT22;34086;51.076;13.722;2023-06-10T03:49:08;17.60;99.90
48264;DHT22;34086;51.076;13.722;2023-06-10T03:50:10;17.70;99.90
48264;DHT22;34086;51.076;13.722;2023-06-10T03:51:11;17.60;99.90
48264;DHT22;34086;51.076;13.722;2023-06-10T03:52:12;17.60;99.90
48264;DHT22;34086;51.076;13.722;2023-06-10T03:53:13;17.60;99.90
48264;DHT22;34086;51.076;13.722;2023-06-10T03:54:16;17.70;99.90
48264;DHT22;34086;51.076;13.722;2023-06-10T03:55:17;17.70;99.90
48264;DHT22;34086;51.076;13.722;2023-06-10T03:56:19;17.70;99.90
48264;DHT22;34086;51.076;13.722;2023-06-10T03:57:19;17.70;99.90
48264;DHT22;34086;51.076;13.722;2023-06-10T03:58:20;17.80;99.90
48264;DHT22;34086;51.076;13.722;2023-06-10T03:59:21;17.80;99.90
48264;DHT22;34086;51.076;13.722;2023-06-10T04:00:21;17.90;99.90
48264;DHT22;34086;51.076;13.722;2023-06-10T04:01:22;17.90;99.90
48264;DHT22;34086;51.076;13.722;2023-06-10T04:02:23;18.00;99.90
48264;DHT22;34086;51.076;13.722;2023-06-10T04:03:24;18.10;99.90
48264;DHT22;34086;51.076;13.722;2023-06-10T04:04:26;18.30;99.90
48264;DHT22;34086;51.076;13.722;2023-06-10T04:05:27;18.50;99.90
48264;DHT22;34086;51.076;13.722;2023-06-10T04:06:29;18.80;99.90
48264;DHT22;34086;51.076;13.722;2023-06-10T04:07:29;19.20;99.90
48264;DHT22;34086;51.076;13.722;2023-06-10T04:08:31;19.60;99.90
48264;DHT22;34086;51.076;13.722;2023-06-10T04:09:34;19.90;99.90
48264;DHT22;34086;51.076;13.722;2023-06-10T04:10:36;20.30;99.90
48264;DHT22;34086;51.076;13.722;2023-06-10T04:11:36;20.60;99.90
48264;DHT22;34086;51.076;13.722;2023-06-10T04:12:37;21.00;99.90
48264;DHT22;34086;51.076;13.722;2023-06-10T04:13:38;21.30;99.90
48264;DHT22;34086;51.076;13.722;2023-06-10T04:14:40;21.60;99.90
48264;DHT22;34086;51.076;13.722;2023-06-10T04:15:43;21.90;99.90
48264;DHT22;34086;51.076;13.722;2023-06-10T04:16:49;22.10;99.90
48264;DHT22;34086;51.076;13.722;2023-06-10T04:17:51;22.30;99.90
48264;DHT22;34086;51.076;13.722;2023-06-10T04:18:55;22.40;99.90
48264;DHT22;34086;51.076;13.722;2023-06-10T04:19:57;22.60;99.90
48264;DHT22;34086;51.076;13.722;2023-06-10T04:20:59;22.60;99.90
48264;DHT22;34086;51.076;13.722;2023-06-10T04:22:01;22.60;99.90
48264;DHT22;34086;51.076;13.722;2023-06-10T04:23:02;22.50;99.90
48264;DHT22;34086;51.076;13.722;2023-06-10T04:24:04;22.60;99.90
48264;DHT22;34086;51.076;13.722;2023-06-10T04:25:08;22.70;99.90
48264;DHT22;34086;51.076;13.722;2023-06-10T04:26:09;22.80;99.90
48264;DHT22;34086;51.076;13.722;2023-06-10T04:27:12;22.90;99.90
48264;DHT22;34086;51.076;13.722;2023-06-10T04:28:13;23.00;99.90
48264;DHT22;34086;51.076;13.722;2023-06-10T04:29:15;23.10;99.90
48264;DHT22;34086;51.076;13.722;2023-06-10T04:30:16;23.30;99.90
48264;DHT22;34086;51.076;13.722;2023-06-10T04:31:17;23.30;99.90
48264;DHT22;34086;51.076;13.722;2023-06-10T04:32:18;23.50;99.90
48264;DHT22;34086;51.076;13.722;2023-06-10T04:33:19;23.50;99.90
48264;DHT22;34086;51.076;13.722;2023-06-10T04:34:19;23.60;99.90
48264;DHT22;34086;51.076;13.722;2023-06-10T04:35:20;23.70;99.90
48264;DHT22;34086;51.076;13.722;2023-06-10T04:36:22;23.80;99.90
48264;DHT22;34086;51.076;13.722;2023-06-10T04:37:25;23.80;99.90
48264;DHT22;34086;51.076;13.722;2023-06-10T04:38:25;23.80;99.90
48264;DHT22;34086;51.076;13.722;2023-06-10T04:39:26;23.70;99.90
48264;DHT22;34086;51.076;13.722;2023-06-10T04:40:27;23.80;99.90
48264;DHT22;34086;51.076;13.722;2023-06-10T04:41:28;23.80;99.90
48264;DHT22;34086;51.076;13.722;2023-06-10T04:42:29;23.90;99.90
48264;DHT22;34086;51.076;13.722;2023-06-10T04:43:29;24.00;99.90
48264;DHT22;34086;51.076;13.722;2023-06-10T04:44:31;24.00;99.90
48264;DHT22;34086;51.076;13.722;2023-06-10T04:45:32;24.00;99.90
48264;DHT22;34086;51.076;13.722;2023-06-10T04:46:33;24.00;99.90
48264;DHT22;34086;51.076;13.722;2023-06-10T04:47:35;24.10;99.90
48264;DHT22;34086;51.076;13.722;2023-06-10T04:48:35;24.20;99.90
48264;DHT22;34086;51.076;13.722;2023-06-10T04:49:37;24.10;99.90
48264;DHT22;34086;51.076;13.722;2023-06-10T04:50:38;24.20;99.90
48264;DHT22;34086;51.076;13.722;2023-06-10T04:51:39;24.30;99.90
48264;DHT22;34086;51.076;13.722;2023-06-10T04:52:40;24.30;99.90
48264;DHT22;34086;51.076;13.722;2023-06-10T04:53:42;24.30;99.90
48264;DHT22;34086;51.076;13.722;2023-06-10T04:54:42;24.30;99.90
48264;DHT22;34086;51.076;13.722;2023-06-10T04:55:43;24.30;99.90
48264;DHT22;34086;51.076;13.722;2023-06-10T04:56:44;24.30;99.90
48264;DHT22;34086;51.076;13.722;2023-06-10T04:57:45;24.30;99.90
48264;DHT22;34086;51.076;13.722;2023-06-10T04:58:46;24.30;99.90
48264;DHT22;34086;51.076;13.722;2023-06-10T04:59:47;24.40;99.90
48264;DHT22;34086;51.076;13.722;2023-06-10T05:00:47;24.50;99.90
48264;DHT22;34086;51.076;13.722;2023-06-10T05:01:48;24.60;99.90
48264;DHT22;34086;51.076;13.722;2023-06-10T05:02:48;24.70;99.90
48264;DHT22;34086;51.076;13.722;2023-06-10T05:03:50;24.80;99.90
48264;DHT22;34086;51.076;13.722;2023-06-10T05:04:50;24.90;99.90
48264;DHT22;34086;51.076;13.722;2023-06-10T05:05:51;25.00;99.90
48264;DHT22;34086;51.076;13.722;2023-06-10T05:06:51;25.00;99.90
48264;DHT22;34086;51.076;13.722;2023-06-10T05:07:52;25.10;99.90
48264;DHT22;34086;51.076;13.722;2023-06-10T05:08:52;25.20;99.90
48264;DHT22;34086;51.076;13.722;2023-06-10T05:09:53;25.20;99.90
48264;DHT22;34086;51.076;13.722;2023-06-10T05:10:54;25.20;99.90
48264;DHT22;34086;51.076;13.722;2023-06-10T05:11:54;25.20;99.90
48264;DHT22;34086;51.076;13.722;2023-06-10T05:12:55;25.30;99.90
48264;DHT22;34086;51.076;13.722;2023-06-10T05:13:55;25.40;99.70
48264;DHT22;34086;51.076;13.722;2023-06-10T05:14:56;25.40;99.00
48264;DHT22;34086;51.076;13.722;2023-06-10T05:15:57;25.40;98.90
48264;DHT22;34086;51.076;13.722;2023-06-10T05:16:57;25.30;98.20
48264;DHT22;34086;51.076;13.722;2023-06-10T05:17:58;25.20;98.50
48264;DHT22;34086;51.076;13.722;2023-06-10T05:18:58;25.10;98.80
48264;DHT22;34086;51.076;13.722;2023-06-10T05:19:59;25.00;98.80
48264;DHT22;34086;51.076;13.722;2023-06-10T05:21:00;25.00;99.10
48264;DHT22;34086;51.076;13.722;2023-06-10T05:22:00;25.10;98.80
48264;DHT22;34086;51.076;13.722;2023-06-10T05:23:01;25.00;99.30
48264;DHT22;34086;51.076;13.722;2023-06-10T05:24:01;25.00;99.00
48264;DHT22;34086;51.076;13.722;2023-06-10T05:25:02;25.00;99.20
48264;DHT22;34086;51.076;13.722;2023-06-10T05:26:03;25.10;99.00
48264;DHT22;34086;51.076;13.722;2023-06-10T05:27:04;25.20;98.80
48264;DHT22;34086;51.076;13.722;2023-06-10T05:28:05;25.30;98.50
48264;DHT22;34086;51.076;13.722;2023-06-10T05:29:08;25.20;98.60
48264;DHT22;34086;51.076;13.722;2023-06-10T05:30:11;25.30;98.60
48264;DHT22;34086;51.076;13.722;2023-06-10T05:31:12;25.30;98.60
48264;DHT22;34086;51.076;13.722;2023-06-10T05:32:13;25.20;97.80
48264;DHT22;34086;51.076;13.722;2023-06-10T05:33:13;25.00;98.00
48264;DHT22;34086;51.076;13.722;2023-06-10T05:34:14;25.00;97.90
48264;DHT22;34086;51.076;13.722;2023-06-10T05:35:15;25.10;98.10
48264;DHT22;34086;51.076;13.722;2023-06-10T05:36:15;25.10;97.60
48264;DHT22;34086;51.076;13.722;2023-06-10T05:37:16;25.10;97.40
48264;DHT22;34086;51.076;13.722;2023-06-10T05:38:16;25.20;97.00
48264;DHT22;34086;51.076;13.722;2023-06-10T05:39:17;25.20;96.80
48264;DHT22;34086;51.076;13.722;2023-06-10T05:40:17;25.20;96.40
48264;DHT22;34086;51.076;13.722;2023-06-10T05:41:18;25.20;96.30
48264;DHT22;34086;51.076;13.722;2023-06-10T05:42:18;25.30;96.40
48264;DHT22;34086;51.076;13.722;2023-06-10T05:43:19;25.50;96.20
48264;DHT22;34086;51.076;13.722;2023-06-10T05:44:19;25.60;95.90
48264;DHT22;34086;51.076;13.722;2023-06-10T05:45:20;25.60;95.60
48264;DHT22;34086;51.076;13.722;2023-06-10T05:46:20;25.70;95.50
48264;DHT22;34086;51.076;13.722;2023-06-10T05:47:21;25.90;95.20
48264;DHT22;34086;51.076;13.722;2023-06-10T05:48:22;26.10;94.60
48264;DHT22;34086;51.076;13.722;2023-06-10T05:49:22;26.20;94.00
48264;DHT22;34086;51.076;13.722;2023-06-10T05:50:24;26.40;93.50
48264;DHT22;34086;51.076;13.722;2023-06-10T05:51:25;26.70;92.80
48264;DHT22;34086;51.076;13.722;2023-06-10T05:52:26;26.90;92.00
48264;DHT22;34086;51.076;13.722;2023-06-10T05:53:26;26.90;91.40
48264;DHT22;34086;51.076;13.722;2023-06-10T05:54:27;26.80;91.00
48264;DHT22;34086;51.076;13.722;2023-06-10T05:55:27;26.60;90.60
48264;DHT22;34086;51.076;13.722;2023-06-10T05:56:28;26.60;90.60
48264;DHT22;34086;51.076;13.722;2023-06-10T05:57:29;26.60;90.40
48264;DHT22;34086;51.076;13.722;2023-06-10T05:58:30;26.50;90.60
48264;DHT22;34086;51.076;13.722;2023-06-10T05:59:30;26.50;90.40
48264;DHT22;34086;51.076;13.722;2023-06-10T06:00:31;26.60;90.60
48264;DHT22;34086;51.076;13.722;2023-06-10T06:01:31;26.70;90.50
48264;DHT22;34086;51.076;13.722;2023-06-10T06:02:32;26.80;89.90
48264;DHT22;34086;51.076;13.722;2023-06-10T06:03:32;26.90;89.10
48264;DHT22;34086;51.076;13.722;2023-06-10T06:04:33;26.90;88.00
48264;DHT22;34086;51.076;13.722;2023-06-10T06:05:34;26.90;87.50
48264;DHT22;34086;51.076;13.722;2023-06-10T06:06:38;26.90;87.60
48264;DHT22;34086;51.076;13.722;2023-06-10T06:07:40;26.80;87.50
48264;DHT22;34086;51.076;13.722;2023-06-10T06:08:40;26.70;88.40
48264;DHT22;34086;51.076;13.722;2023-06-10T06:09:41;26.40;88.90
48264;DHT22;34086;51.076;13.722;2023-06-10T06:10:41;26.20;90.10
48264;DHT22;34086;51.076;13.722;2023-06-10T06:11:42;26.10;90.40
48264;DHT22;34086;51.076;13.722;2023-06-10T06:12:42;26.00;90.70
48264;DHT22;34086;51.076;13.722;2023-06-10T06:13:43;25.90;90.90
48264;DHT22;34086;51.076;13.722;2023-06-10T06:14:43;26.00;91.10
48264;DHT22;34086;51.076;13.722;2023-06-10T06:15:45;26.00;91.20
48264;DHT22;34086;51.076;13.722;2023-06-10T06:16:45;26.10;90.90
48264;DHT22;34086;51.076;13.722;2023-06-10T06:17:46;26.30;90.50
48264;DHT22;34086;51.076;13.722;2023-06-10T06:18:47;26.50;89.90
48264;DHT22;34086;51.076;13.722;2023-06-10T06:19:47;26.70;89.10
48264;DHT22;34086;51.076;13.722;2023-06-10T06:20:48;26.90;87.80
48264;DHT22;34086;51.076;13.722;2023-06-10T06:21:48;27.10;86.70
48264;DHT22;34086;51.076;13.722;2023-06-10T06:22:49;27.10;86.30
48264;DHT22;34086;51.076;13.722;2023-06-10T06:23:50;26.80;86.40
48264;DHT22;34086;51.076;13.722;2023-06-10T06:24:50;26.80;87.40
48264;DHT22;34086;51.076;13.722;2023-06-10T06:25:51;26.80;87.50
48264;DHT22;34086;51.076;13.722;2023-06-10T06:26:52;26.60;87.90